UPS1215 KJFK-KBOS
Flight info
| Callsign | UPS1215 |
|---|---|
| Flight time | 0h 41m |
| Altitude | 23000 |
| Route | KJFK/22R N0448F210 DCT MERIT ROBUC3 KBOS/22L |
| Aircraft | B748/M-V/N |
Departure
| Time | 2026-05-09 02:23 |
|---|---|
| Airport | John F. Kennedy International Airport (KJFK) |
Arrival
| Time | 2026-05-09 03:04 |
|---|---|
| Airport | Boston Logan International Airport (KBOS) |
| Time | Latitude | Longitude | Altitude | Speed | Heading |
|---|---|---|---|---|---|
| 2026-05-09 01:50 | 40.66150 | -73.78608 | 30 ft | 0 kts | 30° |
| 2026-05-09 02:01 | 40.66139 | -73.78617 | 7 ft | 4 kts | 28° |
| 2026-05-09 02:01 | 40.66115 | -73.78633 | 27 ft | 4 kts | 25° |
| 2026-05-09 02:01 | 40.66090 | -73.78648 | 27 ft | 4 kts | 27° |
| 2026-05-09 02:02 | 40.66067 | -73.78665 | 26 ft | 4 kts | 40° |
| 2026-05-09 02:02 | 40.66051 | -73.78685 | 27 ft | 2 kts | 64° |
| 2026-05-09 02:02 | 40.66041 | -73.78711 | 25 ft | 4 kts | 88° |
| 2026-05-09 02:02 | 40.66042 | -73.78736 | 25 ft | 4 kts | 125° |
| 2026-05-09 02:03 | 40.66058 | -73.78763 | 25 ft | 3 kts | 122° |
| 2026-05-09 02:03 | 40.66062 | -73.78771 | 25 ft | 0 kts | 121° |
| 2026-05-09 02:08 | 40.66053 | -73.78752 | 28 ft | 5 kts | 121° |
| 2026-05-09 02:09 | 40.66033 | -73.78709 | 28 ft | 6 kts | 121° |
| 2026-05-09 02:09 | 40.66013 | -73.78663 | 28 ft | 6 kts | 121° |
| 2026-05-09 02:09 | 40.65992 | -73.78631 | 28 ft | 3 kts | 141° |
| 2026-05-09 02:09 | 40.65982 | -73.78626 | 28 ft | 2 kts | 159° |
| 2026-05-09 02:10 | 40.65957 | -73.78626 | 28 ft | 5 kts | 189° |
| 2026-05-09 02:10 | 40.65902 | -73.78656 | 28 ft | 9 kts | 205° |
| 2026-05-09 02:10 | 40.65845 | -73.78694 | 28 ft | 10 kts | 207° |
| 2026-05-09 02:10 | 40.65784 | -73.78717 | 27 ft | 7 kts | 179° |
| 2026-05-09 02:11 | 40.65761 | -73.78699 | 26 ft | 2 kts | 136° |
| 2026-05-09 02:11 | 40.65750 | -73.78678 | 26 ft | 4 kts | 122° |
| 2026-05-09 02:11 | 40.65733 | -73.78640 | 27 ft | 6 kts | 122° |
| 2026-05-09 02:11 | 40.65711 | -73.78593 | 26 ft | 6 kts | 121° |
| 2026-05-09 02:12 | 40.65688 | -73.78543 | 26 ft | 7 kts | 121° |
| 2026-05-09 02:12 | 40.65664 | -73.78488 | 26 ft | 7 kts | 120° |
| 2026-05-09 02:12 | 40.65631 | -73.78417 | 27 ft | 10 kts | 122° |
| 2026-05-09 02:12 | 40.65597 | -73.78346 | 27 ft | 9 kts | 122° |
| 2026-05-09 02:13 | 40.65567 | -73.78277 | 27 ft | 10 kts | 120° |
| 2026-05-09 02:13 | 40.65533 | -73.78199 | 27 ft | 10 kts | 121° |
| 2026-05-09 02:13 | 40.65499 | -73.78125 | 27 ft | 9 kts | 122° |
| 2026-05-09 02:13 | 40.65462 | -73.78044 | 27 ft | 10 kts | 121° |
| 2026-05-09 02:14 | 40.65424 | -73.77960 | 27 ft | 11 kts | 121° |
| 2026-05-09 02:14 | 40.65385 | -73.77877 | 27 ft | 11 kts | 122° |
| 2026-05-09 02:14 | 40.65363 | -73.77837 | 27 ft | 0 kts | 134° |
| 2026-05-09 02:14 | 40.65362 | -73.77836 | 27 ft | 2 kts | 137° |
| 2026-05-09 02:15 | 40.65333 | -73.77830 | 27 ft | 7 kts | 188° |
| 2026-05-09 02:15 | 40.65267 | -73.77879 | 29 ft | 13 kts | 212° |
| 2026-05-09 02:15 | 40.65195 | -73.77940 | 26 ft | 12 kts | 212° |
| 2026-05-09 02:15 | 40.65121 | -73.77999 | 27 ft | 13 kts | 211° |
| 2026-05-09 02:16 | 40.65083 | -73.78023 | 27 ft | 1 kts | 194° |
| 2026-05-09 02:16 | 40.65065 | -73.78026 | 27 ft | 4 kts | 182° |
| 2026-05-09 02:16 | 40.65032 | -73.78012 | 27 ft | 5 kts | 147° |
| 2026-05-09 02:16 | 40.64996 | -73.77933 | 27 ft | 18 kts | 112° |
| 2026-05-09 02:17 | 40.64976 | -73.77775 | 27 ft | 16 kts | 92° |
| 2026-05-09 02:17 | 40.64927 | -73.77626 | 27 ft | 20 kts | 121° |
| 2026-05-09 02:17 | 40.64848 | -73.77455 | 27 ft | 24 kts | 121° |
| 2026-05-09 02:17 | 40.64759 | -73.77258 | 27 ft | 26 kts | 121° |
| 2026-05-09 02:18 | 40.64643 | -73.77098 | 27 ft | 23 kts | 163° |
| 2026-05-09 02:18 | 40.64491 | -73.77092 | 27 ft | 21 kts | 182° |
| 2026-05-09 02:18 | 40.64366 | -73.77154 | 27 ft | 19 kts | 210° |
| 2026-05-09 02:18 | 40.64250 | -73.77246 | 27 ft | 22 kts | 211° |
| 2026-05-09 02:19 | 40.64109 | -73.77356 | 27 ft | 22 kts | 209° |
| 2026-05-09 02:19 | 40.64013 | -73.77328 | 27 ft | 14 kts | 133° |
| 2026-05-09 02:19 | 40.63939 | -73.77202 | 27 ft | 21 kts | 127° |
| 2026-05-09 02:19 | 40.63841 | -73.77034 | 27 ft | 23 kts | 127° |
| 2026-05-09 02:20 | 40.63749 | -73.76922 | 27 ft | 13 kts | 165° |
| 2026-05-09 02:20 | 40.63660 | -73.76917 | 27 ft | 13 kts | 180° |
| 2026-05-09 02:20 | 40.63553 | -73.76919 | 27 ft | 16 kts | 181° |
| 2026-05-09 02:20 | 40.63439 | -73.76930 | 27 ft | 18 kts | 186° |
| 2026-05-09 02:21 | 40.63311 | -73.76945 | 27 ft | 20 kts | 181° |
| 2026-05-09 02:21 | 40.63172 | -73.76951 | 27 ft | 19 kts | 186° |
| 2026-05-09 02:21 | 40.63050 | -73.77007 | 27 ft | 18 kts | 208° |
| 2026-05-09 02:21 | 40.62953 | -73.77082 | 27 ft | 15 kts | 211° |
| 2026-05-09 02:22 | 40.62866 | -73.77150 | 28 ft | 14 kts | 210° |
| 2026-05-09 02:22 | 40.62832 | -73.77221 | 28 ft | 6 kts | 272° |
| 2026-05-09 02:22 | 40.62843 | -73.77267 | 29 ft | 8 kts | 294° |
| 2026-05-09 02:22 | 40.62912 | -73.77425 | 30 ft | 50 kts | 301° |
| 2026-05-09 02:23 | 40.63242 | -73.78153 | 28 ft | 136 kts | 301° |
| 2026-05-09 02:23 | 40.63855 | -73.79508 | 126 ft | 196 kts | 301° |
| 2026-05-09 02:23 | 40.64563 | -73.81096 | 704 ft | 205 kts | 296° |
| 2026-05-09 02:23 | 40.64959 | -73.82926 | 1240 ft | 215 kts | 272° |
| 2026-05-09 02:24 | 40.64735 | -73.84888 | 1827 ft | 218 kts | 248° |
| 2026-05-09 02:24 | 40.63817 | -73.86380 | 2672 ft | 212 kts | 214° |
| 2026-05-09 02:24 | 40.62478 | -73.87204 | 3338 ft | 213 kts | 206° |
| 2026-05-09 02:24 | 40.61120 | -73.87978 | 3932 ft | 212 kts | 208° |
| 2026-05-09 02:25 | 40.59693 | -73.88556 | 4360 ft | 226 kts | 189° |
| 2026-05-09 02:25 | 40.58068 | -73.88139 | 4316 ft | 256 kts | 162° |
| 2026-05-09 02:25 | 40.56378 | -73.87127 | 4299 ft | 271 kts | 158° |
| 2026-05-09 02:25 | 40.54659 | -73.86037 | 4326 ft | 276 kts | 160° |
| 2026-05-09 02:26 | 40.52872 | -73.85358 | 4669 ft | 272 kts | 167° |
| 2026-05-09 02:26 | 40.51234 | -73.84073 | 5027 ft | 282 kts | 139° |
| 2026-05-09 02:26 | 40.50082 | -73.81963 | 5345 ft | 290 kts | 112° |
| 2026-05-09 02:26 | 40.49749 | -73.79349 | 5658 ft | 295 kts | 84° |
| 2026-05-09 02:27 | 40.50334 | -73.76795 | 5944 ft | 293 kts | 54° |
| 2026-05-09 02:27 | 40.51697 | -73.74883 | 6205 ft | 285 kts | 25° |
| 2026-05-09 02:27 | 40.53460 | -73.73668 | 6728 ft | 287 kts | 18° |
| 2026-05-09 02:27 | 40.55281 | -73.72523 | 7517 ft | 292 kts | 20° |
| 2026-05-09 02:28 | 40.57096 | -73.71264 | 8285 ft | 298 kts | 21° |
| 2026-05-09 02:28 | 40.58934 | -73.69939 | 9033 ft | 303 kts | 21° |
| 2026-05-09 02:28 | 40.60805 | -73.68618 | 9789 ft | 307 kts | 20° |
| 2026-05-09 02:28 | 40.62710 | -73.67298 | 10396 ft | 314 kts | 20° |
| 2026-05-09 02:29 | 40.64689 | -73.65925 | 10791 ft | 329 kts | 20° |
| 2026-05-09 02:29 | 40.66771 | -73.64466 | 11122 ft | 347 kts | 21° |
| 2026-05-09 02:29 | 40.68957 | -73.62927 | 11442 ft | 365 kts | 21° |
| 2026-05-09 02:29 | 40.71255 | -73.61313 | 11755 ft | 384 kts | 21° |
| 2026-05-09 02:30 | 40.73671 | -73.59616 | 12164 ft | 400 kts | 22° |
| 2026-05-09 02:30 | 40.76147 | -73.57868 | 12930 ft | 406 kts | 22° |
| 2026-05-09 02:30 | 40.78652 | -73.56101 | 13760 ft | 410 kts | 22° |
| 2026-05-09 02:30 | 40.81153 | -73.54340 | 14496 ft | 414 kts | 22° |
| 2026-05-09 02:31 | 40.83708 | -73.52541 | 15199 ft | 419 kts | 22° |
| 2026-05-09 02:31 | 40.86299 | -73.50714 | 15906 ft | 424 kts | 22° |
| 2026-05-09 02:31 | 40.88916 | -73.48864 | 16609 ft | 429 kts | 22° |
| 2026-05-09 02:31 | 40.91561 | -73.46993 | 17305 ft | 433 kts | 22° |
| 2026-05-09 02:32 | 40.94238 | -73.45100 | 18001 ft | 438 kts | 21° |
| 2026-05-09 02:32 | 40.96935 | -73.43191 | 18628 ft | 442 kts | 21° |
| 2026-05-09 02:32 | 40.99659 | -73.41259 | 19218 ft | 446 kts | 21° |
| 2026-05-09 02:32 | 41.02411 | -73.39307 | 19789 ft | 450 kts | 21° |
| 2026-05-09 02:33 | 41.05179 | -73.37342 | 20376 ft | 454 kts | 20° |
| 2026-05-09 02:33 | 41.07974 | -73.35355 | 20880 ft | 459 kts | 20° |
| 2026-05-09 02:33 | 41.10799 | -73.33346 | 20991 ft | 461 kts | 20° |
| 2026-05-09 02:33 | 41.13610 | -73.31338 | 20984 ft | 458 kts | 20° |
| 2026-05-09 02:34 | 41.16417 | -73.29337 | 20986 ft | 459 kts | 20° |
| 2026-05-09 02:34 | 41.19229 | -73.27333 | 20992 ft | 458 kts | 20° |
| 2026-05-09 02:34 | 41.22004 | -73.25352 | 20999 ft | 462 kts | 20° |
| 2026-05-09 02:34 | 41.24894 | -73.23295 | 21012 ft | 479 kts | 21° |
| 2026-05-09 02:35 | 41.27883 | -73.21159 | 21007 ft | 493 kts | 21° |
| 2026-05-09 02:35 | 41.30905 | -73.18836 | 21016 ft | 501 kts | 28° |
| 2026-05-09 02:35 | 41.33592 | -73.15915 | 21009 ft | 511 kts | 38° |
| 2026-05-09 02:35 | 41.35972 | -73.12264 | 20997 ft | 521 kts | 49° |
| 2026-05-09 02:36 | 41.37836 | -73.08108 | 21004 ft | 527 kts | 60° |
| 2026-05-09 02:36 | 41.39128 | -73.03572 | 21002 ft | 534 kts | 71° |
| 2026-05-09 02:36 | 41.39840 | -72.98703 | 21012 ft | 537 kts | 79° |
| 2026-05-09 02:36 | 41.40373 | -72.93778 | 21007 ft | 537 kts | 79° |
| 2026-05-09 02:37 | 41.40881 | -72.88841 | 21007 ft | 537 kts | 80° |
| 2026-05-09 02:37 | 41.41398 | -72.83921 | 21010 ft | 536 kts | 79° |
| 2026-05-09 02:37 | 41.41933 | -72.79002 | 21012 ft | 536 kts | 79° |
| 2026-05-09 02:37 | 41.42460 | -72.74089 | 21009 ft | 536 kts | 79° |
| 2026-05-09 02:38 | 41.42972 | -72.69165 | 21001 ft | 536 kts | 79° |
| 2026-05-09 02:38 | 41.43482 | -72.64248 | 21015 ft | 535 kts | 79° |
| 2026-05-09 02:38 | 41.43999 | -72.59335 | 21020 ft | 536 kts | 79° |
| 2026-05-09 02:38 | 41.44514 | -72.54417 | 21015 ft | 536 kts | 79° |
| 2026-05-09 02:39 | 41.45022 | -72.49501 | 21019 ft | 536 kts | 79° |
| 2026-05-09 02:39 | 41.45526 | -72.44581 | 21019 ft | 535 kts | 79° |
| 2026-05-09 02:39 | 41.46031 | -72.39672 | 21012 ft | 535 kts | 79° |
| 2026-05-09 02:39 | 41.46536 | -72.34751 | 21008 ft | 535 kts | 79° |
| 2026-05-09 02:40 | 41.47030 | -72.29897 | 21003 ft | 535 kts | 80° |
| 2026-05-09 02:40 | 41.47530 | -72.24984 | 21002 ft | 534 kts | 79° |
| 2026-05-09 02:40 | 41.48372 | -72.20199 | 21001 ft | 529 kts | 67° |
| 2026-05-09 02:40 | 41.49801 | -72.15794 | 20992 ft | 505 kts | 59° |
| 2026-05-09 02:41 | 41.51318 | -72.11676 | 20986 ft | 485 kts | 59° |
| 2026-05-09 02:41 | 41.52785 | -72.07706 | 20981 ft | 471 kts | 59° |
| 2026-05-09 02:41 | 41.54229 | -72.03766 | 20991 ft | 475 kts | 59° |
| 2026-05-09 02:41 | 41.55662 | -71.99795 | 20896 ft | 476 kts | 61° |
| 2026-05-09 02:42 | 41.56910 | -71.95707 | 20411 ft | 470 kts | 64° |
| 2026-05-09 02:42 | 41.58103 | -71.91649 | 20018 ft | 471 kts | 64° |
| 2026-05-09 02:42 | 41.59308 | -71.87601 | 19602 ft | 462 kts | 64° |
| 2026-05-09 02:42 | 41.60463 | -71.83739 | 19210 ft | 434 kts | 64° |
| 2026-05-09 02:43 | 41.61543 | -71.80083 | 18839 ft | 411 kts | 64° |
| 2026-05-09 02:43 | 41.62559 | -71.76624 | 18498 ft | 390 kts | 63° |
| 2026-05-09 02:43 | 41.63536 | -71.73315 | 18165 ft | 379 kts | 63° |
| 2026-05-09 02:43 | 41.64515 | -71.70024 | 17851 ft | 380 kts | 63° |
| 2026-05-09 02:44 | 41.65485 | -71.66730 | 17584 ft | 383 kts | 64° |
| 2026-05-09 02:44 | 41.66454 | -71.63420 | 17264 ft | 381 kts | 64° |
| 2026-05-09 02:44 | 41.67418 | -71.60124 | 16941 ft | 379 kts | 64° |
| 2026-05-09 02:44 | 41.68381 | -71.56843 | 16610 ft | 378 kts | 64° |
| 2026-05-09 02:45 | 41.69338 | -71.53578 | 16299 ft | 376 kts | 64° |
| 2026-05-09 02:45 | 41.70290 | -71.50321 | 15975 ft | 375 kts | 64° |
| 2026-05-09 02:45 | 41.71236 | -71.47078 | 15663 ft | 374 kts | 64° |
| 2026-05-09 02:45 | 41.72185 | -71.43840 | 15348 ft | 372 kts | 62° |
| 2026-05-09 02:46 | 41.73368 | -71.40810 | 15040 ft | 365 kts | 54° |
| 2026-05-09 02:46 | 41.74635 | -71.37874 | 14735 ft | 364 kts | 54° |
| 2026-05-09 02:46 | 41.75898 | -71.34957 | 14407 ft | 359 kts | 54° |
| 2026-05-09 02:46 | 41.77106 | -71.32119 | 14105 ft | 351 kts | 55° |
| 2026-05-09 02:47 | 41.78319 | -71.29267 | 13814 ft | 355 kts | 54° |
| 2026-05-09 02:47 | 41.79560 | -71.26363 | 13488 ft | 354 kts | 54° |
| 2026-05-09 02:47 | 41.80777 | -71.23507 | 13158 ft | 352 kts | 54° |
| 2026-05-09 02:47 | 41.81968 | -71.20705 | 12861 ft | 346 kts | 54° |
| 2026-05-09 02:48 | 41.83125 | -71.17971 | 12573 ft | 331 kts | 54° |
| 2026-05-09 02:48 | 41.84269 | -71.15287 | 12295 ft | 331 kts | 54° |
| 2026-05-09 02:48 | 41.85407 | -71.12617 | 12023 ft | 329 kts | 54° |
| 2026-05-09 02:48 | 41.86348 | -71.09823 | 11994 ft | 336 kts | 74° |
| 2026-05-09 02:49 | 41.86458 | -71.06671 | 12030 ft | 341 kts | 100° |
| 2026-05-09 02:49 | 41.86123 | -71.03531 | 12072 ft | 341 kts | 84° |
| 2026-05-09 02:49 | 41.86429 | -71.00400 | 12112 ft | 338 kts | 77° |
| 2026-05-09 02:49 | 41.86835 | -70.97277 | 12150 ft | 338 kts | 76° |
| 2026-05-09 02:50 | 41.87258 | -70.94187 | 12169 ft | 337 kts | 76° |
| 2026-05-09 02:50 | 41.87805 | -70.91138 | 12010 ft | 335 kts | 65° |
| 2026-05-09 02:50 | 41.88739 | -70.88278 | 11624 ft | 335 kts | 58° |
| 2026-05-09 02:50 | 41.89780 | -70.85546 | 11253 ft | 321 kts | 57° |
| 2026-05-09 02:51 | 41.90810 | -70.82933 | 10970 ft | 311 kts | 56° |
| 2026-05-09 02:51 | 41.91827 | -70.80389 | 10736 ft | 309 kts | 53° |
| 2026-05-09 02:51 | 41.92989 | -70.78003 | 10469 ft | 303 kts | 48° |
| 2026-05-09 02:51 | 41.94230 | -70.75735 | 10207 ft | 300 kts | 46° |
| 2026-05-09 02:52 | 41.95483 | -70.73513 | 9946 ft | 297 kts | 46° |
| 2026-05-09 02:52 | 41.96738 | -70.71315 | 9727 ft | 296 kts | 46° |
| 2026-05-09 02:52 | 41.97990 | -70.69136 | 9533 ft | 295 kts | 46° |
| 2026-05-09 02:52 | 41.98820 | -70.67703 | 9366 ft | 294 kts | 46° |
| 2026-05-09 02:53 | 42.00095 | -70.65524 | 8999 ft | 297 kts | 46° |
| 2026-05-09 02:53 | 42.01387 | -70.63347 | 8697 ft | 299 kts | 46° |
| 2026-05-09 02:53 | 42.02698 | -70.61171 | 8408 ft | 299 kts | 46° |
| 2026-05-09 02:53 | 42.04017 | -70.59003 | 8157 ft | 299 kts | 46° |
| 2026-05-09 02:54 | 42.05508 | -70.57142 | 8008 ft | 285 kts | 23° |
| 2026-05-09 02:54 | 42.07329 | -70.56322 | 8019 ft | 269 kts | 2° |
| 2026-05-09 02:54 | 42.09166 | -70.56073 | 8021 ft | 267 kts | 357° |
| 2026-05-09 02:54 | 42.11055 | -70.55963 | 7996 ft | 271 kts | 356° |
| 2026-05-09 02:55 | 42.12925 | -70.56022 | 7698 ft | 267 kts | 349° |
| 2026-05-09 02:55 | 42.14746 | -70.56321 | 7278 ft | 262 kts | 346° |
| 2026-05-09 02:55 | 42.16525 | -70.56681 | 6663 ft | 261 kts | 346° |
| 2026-05-09 02:55 | 42.18336 | -70.57078 | 5947 ft | 260 kts | 346° |
| 2026-05-09 02:56 | 42.20094 | -70.57483 | 5297 ft | 257 kts | 346° |
| 2026-05-09 02:56 | 42.21851 | -70.57906 | 5009 ft | 259 kts | 346° |
| 2026-05-09 02:56 | 42.23629 | -70.58350 | 5007 ft | 261 kts | 346° |
| 2026-05-09 02:56 | 42.25406 | -70.58799 | 5005 ft | 260 kts | 345° |
| 2026-05-09 02:57 | 42.27080 | -70.59616 | 4946 ft | 253 kts | 330° |
| 2026-05-09 02:57 | 42.28616 | -70.60759 | 4662 ft | 252 kts | 327° |
| 2026-05-09 02:57 | 42.30126 | -70.61978 | 4374 ft | 253 kts | 326° |
| 2026-05-09 02:57 | 42.31619 | -70.63207 | 4103 ft | 247 kts | 326° |
| 2026-05-09 02:58 | 42.33053 | -70.64393 | 3874 ft | 236 kts | 326° |
| 2026-05-09 02:58 | 42.34418 | -70.65518 | 3718 ft | 223 kts | 326° |
| 2026-05-09 02:58 | 42.35670 | -70.66649 | 3615 ft | 211 kts | 313° |
| 2026-05-09 02:58 | 42.36616 | -70.68076 | 3551 ft | 199 kts | 307° |
| 2026-05-09 02:59 | 42.37467 | -70.69518 | 3391 ft | 195 kts | 306° |
| 2026-05-09 02:59 | 42.38224 | -70.71014 | 3177 ft | 192 kts | 290° |
| 2026-05-09 02:59 | 42.38662 | -70.72693 | 2996 ft | 188 kts | 287° |
| 2026-05-09 02:59 | 42.39046 | -70.74374 | 3006 ft | 189 kts | 286° |
| 2026-05-09 03:00 | 42.39408 | -70.76056 | 2991 ft | 187 kts | 280° |
| 2026-05-09 03:00 | 42.39520 | -70.77761 | 2973 ft | 177 kts | 273° |
| 2026-05-09 03:00 | 42.39381 | -70.79415 | 2917 ft | 178 kts | 259° |
| 2026-05-09 03:00 | 42.39142 | -70.81047 | 2686 ft | 174 kts | 257° |
| 2026-05-09 03:01 | 42.38869 | -70.82604 | 2480 ft | 167 kts | 257° |
| 2026-05-09 03:01 | 42.38606 | -70.84087 | 2244 ft | 164 kts | 257° |
| 2026-05-09 03:01 | 42.38345 | -70.85557 | 2032 ft | 155 kts | 257° |
| 2026-05-09 03:01 | 42.38102 | -70.86927 | 1794 ft | 149 kts | 258° |
| 2026-05-09 03:02 | 42.37862 | -70.88288 | 1596 ft | 147 kts | 258° |
| 2026-05-09 03:02 | 42.37618 | -70.89667 | 1455 ft | 148 kts | 258° |
| 2026-05-09 03:02 | 42.37384 | -70.90988 | 1228 ft | 142 kts | 258° |
| 2026-05-09 03:02 | 42.37161 | -70.92291 | 1024 ft | 142 kts | 257° |
| 2026-05-09 03:03 | 42.36931 | -70.93591 | 826 ft | 143 kts | 257° |
| 2026-05-09 03:03 | 42.36699 | -70.94906 | 651 ft | 144 kts | 256° |
| 2026-05-09 03:03 | 42.36467 | -70.96224 | 437 ft | 144 kts | 257° |
| 2026-05-09 03:03 | 42.36235 | -70.97537 | 256 ft | 144 kts | 257° |
| 2026-05-09 03:04 | 42.36001 | -70.98865 | 56 ft | 146 kts | 256° |
| 2026-05-09 03:04 | 42.35786 | -71.00087 | 35 ft | 105 kts | 256° |
| 2026-05-09 03:04 | 42.35672 | -71.00739 | 29 ft | 50 kts | 256° |
| 2026-05-09 03:04 | 42.35608 | -71.01095 | 32 ft | 36 kts | 257° |
| 2026-05-09 03:05 | 42.35559 | -71.01296 | 33 ft | 14 kts | 231° |
| 2026-05-09 03:05 | 42.35478 | -71.01360 | 32 ft | 13 kts | 202° |
| 2026-05-09 03:05 | 42.35411 | -71.01397 | 32 ft | 7 kts | 202° |
| 2026-05-09 03:05 | 42.35367 | -71.01421 | 32 ft | 7 kts | 202° |
| 2026-05-09 03:06 | 42.35347 | -71.01444 | 32 ft | 3 kts | 235° |
| 2026-05-09 03:06 | 42.35344 | -71.01476 | 32 ft | 2 kts | 274° |
| 2026-05-09 03:06 | 42.35363 | -71.01520 | 31 ft | 7 kts | 306° |
| 2026-05-09 03:06 | 42.35394 | -71.01575 | 31 ft | 8 kts | 307° |
| 2026-05-09 03:07 | 42.35428 | -71.01637 | 30 ft | 9 kts | 306° |
| 2026-05-09 03:07 | 42.35467 | -71.01696 | 31 ft | 8 kts | 322° |
| 2026-05-09 03:07 | 42.35510 | -71.01715 | 33 ft | 6 kts | 354° |
| 2026-05-09 03:07 | 42.35577 | -71.01699 | 34 ft | 12 kts | 17° |
| 2026-05-09 03:08 | 42.35655 | -71.01662 | 33 ft | 12 kts | 20° |
| 2026-05-09 03:08 | 42.35733 | -71.01624 | 33 ft | 12 kts | 20° |
| 2026-05-09 03:08 | 42.35801 | -71.01622 | 33 ft | 8 kts | 331° |
| 2026-05-09 03:08 | 42.35831 | -71.01700 | 34 ft | 11 kts | 286° |
| 2026-05-09 03:09 | 42.35850 | -71.01807 | 33 ft | 12 kts | 283° |
| 2026-05-09 03:09 | 42.35875 | -71.01914 | 32 ft | 12 kts | 291° |
| 2026-05-09 03:09 | 42.35895 | -71.01975 | 32 ft | 0 kts | 295° |
| 2026-05-09 03:11 | 42.35905 | -71.02004 | 31 ft | 4 kts | 295° |
| 2026-05-09 03:11 | 42.35916 | -71.02038 | 31 ft | 4 kts | 292° |
| 2026-05-09 03:12 | 42.35925 | -71.02073 | 31 ft | 4 kts | 282° |
| 2026-05-09 03:12 | 42.35924 | -71.02105 | 31 ft | 4 kts | 250° |
| 2026-05-09 03:12 | 42.35909 | -71.02132 | 31 ft | 4 kts | 222° |
| 2026-05-09 03:12 | 42.35891 | -71.02151 | 31 ft | 0 kts | 215° |